Terminal Aerodrome Forecast
Issued by NWS

Home | Current Version | Previous Version | Text Only | Print | Product List | Glossary On
Versions: 1 2 3 4 5 6 7 8 9 10 11 12
000
FTUS46 KPDT 280500
TAFPSC
TAF
KPSC 280532Z 2806/2906 VRB06KT P6SM BKN250
     FM281000 20007KT P6SM BKN250
     FM281500 VRB06KT P6SM FEW250
     FM282000 33008KT P6SM SCT250
     FM290400 20007KT P6SM SCT250=

USA.gov is the U.S. government's official web portal to all federal, state and local government web resources and services.